Time;durP1;ratioP1;P1;durP2;ratioP2;P2;SDS_P1;SDS_P2;PMS_P1;PMS_P2;Temp;Humidity;BMP_temperature;BMP_pressure;BME280_temperature;BME280_humidity;BME280_pressure;Samples;Min_cycle;Max_cycle;Signal;HPM_P1;HPM_P2
2022/09/08 00:00:48;;;;;;;15.70;11.85;;;20.70;99.00;;;;;;4751544;30;20047;-91
2022/09/08 00:03:19;;;;;;;16.02;11.70;;;20.70;98.80;;;;;;4750263;30;20092;-91
2022/09/08 00:05:55;;;;;;;18.23;12.05;;;20.70;99.20;;;;;;4758837;30;20142;-91
2022/09/08 00:08:24;;;;;;;16.35;12.15;;;20.70;98.60;;;;;;4756145;30;20061;-91
2022/09/08 00:10:54;;;;;;;18.15;12.48;;;20.60;98.40;;;;;;4747272;30;20173;-92
2022/09/08 00:13:23;;;;;;;16.40;12.50;;;20.60;98.60;;;;;;4756392;30;20055;-91
2022/09/08 00:15:52;;;;;;;17.25;12.63;;;20.60;98.40;;;;;;4753396;30;20051;-91
2022/09/08 00:18:20;;;;;;;17.17;12.82;;;20.60;98.30;;;;;;4765660;30;20087;-93
2022/09/08 00:20:47;;;;;;;18.38;12.68;;;20.50;98.20;;;;;;4767668;30;20079;-91
2022/09/08 00:23:15;;;;;;;15.35;11.85;;;20.50;98.00;;;;;;4755524;30;20078;-92
2022/09/08 00:25:42;;;;;;;16.05;12.25;;;20.50;97.90;;;;;;4748134;30;20490;-92
2022/09/08 00:28:09;;;;;;;16.58;12.43;;;20.50;97.90;;;;;;4750829;30;20138;-91
2022/09/08 00:30:36;;;;;;;16.77;12.15;;;20.50;98.30;;;;;;4750366;30;20047;-92
2022/09/08 00:33:04;;;;;;;17.90;12.43;;;20.40;98.40;;;;;;4755424;30;20040;-92
2022/09/08 00:35:31;;;;;;;15.75;11.55;;;20.40;98.60;;;;;;4764861;30;20055;-91
2022/09/08 00:37:59;;;;;;;15.88;12.35;;;20.40;98.40;;;;;;4769270;30;20047;-92
2022/09/08 00:40:26;;;;;;;16.98;11.90;;;20.40;98.70;;;;;;4756112;30;20054;-92
2022/09/08 00:43:04;;;;;;;20.80;12.55;;;20.40;98.40;;;;;;4756547;30;20134;-92
2022/09/08 00:45:46;;;;;;;16.45;11.50;;;20.30;98.20;;;;;;4769241;30;20047;-93
2022/09/08 00:48:17;;;;;;;16.80;11.98;;;20.30;98.40;;;;;;4749834;30;20130;-91
2022/09/08 00:50:45;;;;;;;15.82;11.45;;;20.30;98.20;;;;;;4755523;30;20077;-91
2022/09/08 00:53:16;;;;;;;17.48;11.80;;;20.30;97.90;;;;;;4754609;30;20504;-92
2022/09/08 00:55:44;;;;;;;18.45;12.30;;;20.20;97.90;;;;;;4770699;30;20094;-91
2022/09/08 00:58:12;;;;;;;16.48;10.80;;;20.20;98.20;;;;;;4753662;30;20044;-92
2022/09/08 01:00:42;;;;;;;17.10;11.13;;;20.20;98.00;;;;;;4770349;30;20055;-92
2022/09/08 01:03:15;;;;;;;16.58;11.07;;;20.20;98.00;;;;;;4762105;30;20059;-92
2022/09/08 01:05:56;;;;;;;15.77;11.38;;;20.20;98.00;;;;;;4747430;30;20047;-92
2022/09/08 01:14:46;;;;;;;16.08;11.98;;;20.10;99.10;;;;;;4760102;30;20063;-93
2022/09/08 01:17:22;;;;;;;16.20;11.77;;;20.10;98.90;;;;;;4746970;30;20520;-93
2022/09/08 01:19:51;;;;;;;16.10;11.07;;;20.10;99.00;;;;;;4750591;30;20053;-93
2022/09/08 01:22:46;;;;;;;17.55;12.13;;;20.00;99.30;;;;;;4755984;30;20075;-94
2022/09/08 01:25:42;;;;;;;17.05;11.27;;;20.00;99.30;;;;;;4750211;30;20605;-94
2022/09/08 01:28:24;;;;;;;14.32;10.50;;;20.00;99.40;;;;;;4755301;30;20059;-94
2022/09/08 01:30:53;;;;;;;14.27;10.40;;;20.00;99.50;;;;;;4757283;30;20055;-94
2022/09/08 01:33:21;;;;;;;16.70;10.88;;;19.90;99.30;;;;;;4772936;29;20556;-93
2022/09/08 01:35:50;;;;;;;15.65;11.43;;;19.90;99.50;;;;;;4753649;30;20062;-94
2022/09/08 01:38:17;;;;;;;17.75;10.88;;;19.90;99.70;;;;;;4770645;30;20035;-94
2022/09/08 01:40:45;;;;;;;18.10;11.63;;;19.90;99.60;;;;;;4749798;30;20062;-94
2022/09/08 01:43:12;;;;;;;15.95;11.40;;;19.90;99.90;;;;;;4755907;30;20044;-94
2022/09/08 01:45:40;;;;;;;15.82;11.50;;;19.90;99.90;;;;;;4762572;30;20180;-93
2022/09/08 01:48:08;;;;;;;15.00;10.82;;;19.90;99.90;;;;;;4760289;30;20497;-93
2022/09/08 01:50:36;;;;;;;15.85;10.55;;;19.80;99.90;;;;;;4762531;29;20059;-93
2022/09/08 01:53:03;;;;;;;14.48;11.00;;;19.80;99.90;;;;;;4770695;30;20047;-94
2022/09/08 01:55:31;;;;;;;16.30;11.57;;;19.80;99.70;;;;;;4754342;30;20055;-93
2022/09/08 01:57:58;;;;;;;14.30;10.10;;;19.80;99.90;;;;;;4753157;30;20919;-93
2022/09/08 02:00:26;;;;;;;13.55;10.00;;;19.80;99.50;;;;;;4760521;30;20054;-94
2022/09/08 02:02:53;;;;;;;14.45;9.63;;;19.70;99.70;;;;;;4755492;30;20066;-93
2022/09/08 02:05:21;;;;;;;15.85;10.32;;;19.70;99.90;;;;;;4756878;30;20055;-94
2022/09/08 02:07:51;;;;;;;12.05;9.77;;;19.70;99.90;;;;;;4756213;30;20063;-94
2022/09/08 02:10:18;;;;;;;19.00;10.63;;;19.60;99.90;;;;;;4753126;30;20575;-94
2022/09/08 02:12:45;;;;;;;13.40;10.25;;;19.60;99.90;;;;;;4751835;30;20051;-93
2022/09/08 02:15:13;;;;;;;17.52;10.45;;;19.60;99.90;;;;;;4750209;30;20046;-93
2022/09/08 02:17:40;;;;;;;13.93;10.05;;;19.60;99.90;;;;;;4752976;30;20051;-94
2022/09/08 02:20:08;;;;;;;14.55;10.13;;;19.60;99.90;;;;;;4752186;30;20059;-95
2022/09/08 02:22:35;;;;;;;13.15;8.95;;;19.60;99.90;;;;;;4757895;30;20051;-94
2022/09/08 02:25:03;;;;;;;13.50;9.85;;;19.60;99.30;;;;;;4752693;30;20059;-94
2022/09/08 02:27:30;;;;;;;15.98;10.02;;;19.60;99.90;;;;;;4753473;30;20175;-94
2022/09/08 02:29:58;;;;;;;13.98;9.43;;;19.60;99.90;;;;;;4751697;30;20052;-93
2022/09/08 02:32:25;;;;;;;14.05;9.45;;;19.60;99.90;;;;;;4750795;30;20032;-94
2022/09/08 02:34:52;;;;;;;17.15;10.30;;;19.50;99.90;;;;;;4753946;30;20055;-93
2022/09/08 02:37:20;;;;;;;14.18;9.32;;;19.50;99.90;;;;;;4750128;30;20116;-94
2022/09/08 02:39:47;;;;;;;13.85;9.27;;;19.40;99.90;;;;;;4764470;30;20055;-94
2022/09/08 02:42:15;;;;;;;13.95;9.38;;;19.50;99.90;;;;;;4741147;30;20059;-94
2022/09/08 02:44:42;;;;;;;14.05;10.38;;;19.40;99.90;;;;;;4754201;30;20051;-94
2022/09/08 02:47:10;;;;;;;14.85;9.52;;;19.40;99.90;;;;;;4766357;30;20123;-94
2022/09/08 02:49:38;;;;;;;15.10;9.93;;;19.40;99.90;;;;;;4750098;30;20078;-94
2022/09/08 02:52:05;;;;;;;12.38;9.48;;;19.40;99.90;;;;;;4755966;30;20051;-94
2022/09/08 02:54:33;;;;;;;13.52;9.73;;;19.30;99.90;;;;;;4755298;30;20070;-93
2022/09/08 02:57:00;;;;;;;14.63;9.52;;;19.40;99.90;;;;;;4768534;30;20052;-94
2022/09/08 02:59:27;;;;;;;15.32;9.88;;;19.40;99.90;;;;;;4766602;30;20047;-94
2022/09/08 03:01:56;;;;;;;15.07;9.65;;;19.40;99.90;;;;;;4752467;30;20134;-93
2022/09/08 03:04:23;;;;;;;15.48;9.95;;;19.40;99.90;;;;;;4753992;30;20047;-93
2022/09/08 03:06:51;;;;;;;14.65;10.20;;;19.30;99.90;;;;;;4753278;30;20170;-94
2022/09/08 03:09:19;;;;;;;15.40;10.32;;;19.30;99.90;;;;;;4746670;30;20051;-94
2022/09/08 03:11:48;;;;;;;16.08;10.38;;;19.30;99.90;;;;;;4752281;30;20395;-93
2022/09/08 03:14:15;;;;;;;15.70;10.80;;;19.40;99.90;;;;;;4754600;30;20079;-95
2022/09/08 03:16:44;;;;;;;17.15;10.75;;;19.30;99.90;;;;;;4750527;30;20052;-95
2022/09/08 03:19:12;;;;;;;18.70;11.70;;;19.30;99.90;;;;;;4766225;30;20051;-94
2022/09/08 03:21:39;;;;;;;18.35;12.00;;;19.30;99.90;;;;;;4755944;30;20048;-94
2022/09/08 03:24:07;;;;;;;16.80;12.05;;;19.30;99.90;;;;;;4771092;30;20492;-95
2022/09/08 03:26:34;;;;;;;17.23;11.77;;;19.30;99.90;;;;;;4754820;30;20394;-95
2022/09/08 03:29:02;;;;;;;17.85;12.20;;;19.20;99.90;;;;;;4768483;30;20063;-94
2022/09/08 03:31:30;;;;;;;17.30;12.52;;;19.20;99.90;;;;;;4756094;30;20047;-94
2022/09/08 03:33:57;;;;;;;17.92;12.55;;;19.30;99.90;;;;;;4753725;30;20056;-94
2022/09/08 03:36:24;;;;;;;18.48;11.85;;;19.30;99.90;;;;;;4754899;30;20053;-94
2022/09/08 03:38:52;;;;;;;19.60;12.43;;;19.20;99.90;;;;;;4752924;30;20051;-94
2022/09/08 03:41:20;;;;;;;19.17;12.95;;;19.20;99.90;;;;;;4753239;30;20051;-94
2022/09/08 03:43:50;;;;;;;19.13;12.70;;;19.20;99.90;;;;;;4767776;30;20513;-95
2022/09/08 03:46:18;;;;;;;20.77;14.18;;;19.20;99.90;;;;;;4756567;30;20082;-94
2022/09/08 03:48:46;;;;;;;19.67;12.57;;;19.20;99.90;;;;;;4755571;30;20142;-94
2022/09/08 03:51:25;;;;;;;20.02;14.35;;;19.20;99.90;;;;;;4749216;30;20512;-94
2022/09/08 03:54:46;;;;;;;21.20;14.23;;;19.20;99.90;;;;;;4753151;30;20059;-95
2022/09/08 03:56:44;;;;;;;23.42;14.40;;;19.20;99.90;;;;;;4750536;30;20062;-94
2022/09/08 03:59:12;;;;;;;23.00;14.52;;;19.10;99.90;;;;;;4746586;30;20645;-94
2022/09/08 04:01:41;;;;;;;21.00;14.35;;;19.10;99.90;;;;;;4764166;30;20475;-95
2022/09/08 04:04:08;;;;;;;20.02;14.18;;;19.20;99.90;;;;;;4735923;30;20063;-94
2022/09/08 04:06:36;;;;;;;22.23;14.48;;;19.10;99.90;;;;;;4748125;30;20075;-94
2022/09/08 04:09:03;;;;;;;21.92;14.70;;;19.10;99.90;;;;;;4734125;30;20052;-94
2022/09/08 04:11:31;;;;;;;20.35;13.48;;;19.10;99.90;;;;;;4752062;30;20077;-96
2022/09/08 04:13:58;;;;;;;23.00;14.02;;;19.10;99.90;;;;;;4752151;30;20059;-96
2022/09/08 04:16:26;;;;;;;21.25;13.90;;;19.10;99.90;;;;;;4753576;30;20111;-96
2022/09/08 04:18:53;;;;;;;23.60;14.98;;;18.90;99.90;;;;;;4747944;30;20064;-95
2022/09/08 04:21:21;;;;;;;25.70;14.65;;;18.90;99.90;;;;;;4738559;30;20131;-96
2022/09/08 04:23:48;;;;;;;20.05;14.57;;;18.90;99.90;;;;;;4738943;30;20512;-96
2022/09/08 04:26:16;;;;;;;21.77;14.45;;;18.90;99.90;;;;;;4749313;30;20047;-95
2022/09/08 04:28:43;;;;;;;23.20;14.63;;;19.00;99.90;;;;;;4752625;30;20056;-95
2022/09/08 04:31:13;;;;;;;22.33;14.68;;;19.00;99.90;;;;;;4755441;30;20062;-96
2022/09/08 04:33:41;;;;;;;22.08;14.25;;;19.00;99.90;;;;;;4756058;30;20529;-96
2022/09/08 04:36:20;;;;;;;21.38;14.23;;;19.00;99.90;;;;;;4734074;30;20070;-96
2022/09/08 04:38:54;;;;;;;22.92;14.02;;;19.00;99.90;;;;;;4734945;30;20051;-96
2022/09/08 04:41:23;;;;;;;21.00;14.32;;;19.00;99.90;;;;;;4731054;30;20055;-96
2022/09/08 04:43:50;;;;;;;20.77;14.18;;;19.00;99.90;;;;;;4735630;30;20669;-96
2022/09/08 04:46:18;;;;;;;22.10;14.35;;;19.00;99.90;;;;;;4745949;30;20048;-96
2022/09/08 04:48:46;;;;;;;23.75;14.38;;;19.00;99.90;;;;;;4750872;30;20098;-96
2022/09/08 04:51:16;;;;;;;20.10;14.48;;;19.00;99.90;;;;;;4740419;30;20464;-96
2022/09/08 04:53:44;;;;;;;23.25;14.55;;;19.00;99.90;;;;;;4749153;30;20855;-96
2022/09/08 04:56:13;;;;;;;22.45;13.90;;;19.00;99.90;;;;;;4747003;30;20129;-96
2022/09/08 04:58:43;;;;;;;24.58;14.65;;;19.00;99.90;;;;;;4736786;30;20071;-96
2022/09/08 05:01:15;;;;;;;22.52;14.45;;;19.10;99.90;;;;;;4737299;30;20052;-96
2022/09/08 05:03:43;;;;;;;20.15;13.75;;;19.10;99.90;;;;;;4748641;30;20052;-96
2022/09/08 05:06:13;;;;;;;22.05;14.40;;;19.20;99.90;;;;;;4740058;30;20055;-96
2022/09/08 05:08:43;;;;;;;21.90;14.07;;;19.20;99.90;;;;;;4738863;30;20086;-95
2022/09/08 05:11:11;;;;;;;24.83;14.45;;;19.20;99.90;;;;;;4739289;30;20044;-96
2022/09/08 05:13:39;;;;;;;19.88;13.18;;;19.20;99.90;;;;;;4735846;30;20106;-96
2022/09/08 05:16:08;;;;;;;21.30;13.02;;;19.30;99.90;;;;;;4739311;30;20044;-96
2022/09/08 05:18:36;;;;;;;18.67;13.02;;;19.30;99.90;;;;;;4753825;30;20068;-96
2022/09/08 05:21:04;;;;;;;22.02;13.10;;;19.30;99.90;;;;;;4741035;30;20067;-95
2022/09/08 05:23:32;;;;;;;20.98;13.20;;;19.40;99.90;;;;;;4739586;30;20048;-95
2022/09/08 05:26:06;;;;;;;19.98;13.43;;;19.50;99.90;;;;;;4751423;30;20055;-96
2022/09/08 05:28:37;;;;;;;21.40;12.55;;;19.50;99.90;;;;;;4700752;30;20055;-95
2022/09/08 05:31:12;;;;;;;17.85;11.68;;;19.50;99.90;;;;;;4747276;30;20056;-96
2022/09/08 05:33:41;;;;;;;17.95;11.57;;;19.50;99.90;;;;;;4736731;30;20052;-96
2022/09/08 05:36:15;;;;;;;18.45;11.52;;;19.60;99.90;;;;;;4735629;30;20138;-95
2022/09/08 05:38:44;;;;;;;16.83;11.30;;;19.60;99.90;;;;;;4751655;30;20048;-96
2022/09/08 05:41:13;;;;;;;18.92;11.45;;;19.60;99.90;;;;;;4738704;30;20040;-96
2022/09/08 05:43:44;;;;;;;20.33;11.32;;;19.60;99.90;;;;;;4735227;30;20064;-96
2022/09/08 05:46:11;;;;;;;17.60;11.40;;;19.50;99.90;;;;;;4738161;30;20090;-96
2022/09/08 05:48:45;;;;;;;20.77;11.70;;;19.70;99.90;;;;;;4738926;30;20052;-96
2022/09/08 05:51:17;;;;;;;21.75;11.38;;;19.70;99.90;;;;;;4709627;30;20051;-96
2022/09/08 05:53:46;;;;;;;17.48;10.20;;;19.80;99.90;;;;;;4732188;30;20062;-96
2022/09/08 05:56:18;;;;;;;14.82;9.57;;;19.80;99.90;;;;;;4748658;30;20132;-96
2022/09/08 05:58:54;;;;;;;16.25;9.70;;;19.80;99.90;;;;;;4754970;30;20124;-96
2022/09/08 06:01:31;;;;;;;17.65;10.93;;;20.00;99.90;;;;;;4768331;30;20055;-96
2022/09/08 06:03:59;;;;;;;18.05;10.10;;;20.00;99.90;;;;;;4752519;30;20143;-96
2022/09/08 06:06:27;;;;;;;16.80;10.32;;;20.10;99.90;;;;;;4754292;30;20039;-93
2022/09/08 06:09:00;;;;;;;15.38;9.88;;;20.20;99.90;;;;;;4773734;30;20047;-96
2022/09/08 06:11:41;;;;;;;14.00;9.30;;;20.30;99.90;;;;;;4755293;30;20048;-96
2022/09/08 06:14:10;;;;;;;16.33;10.02;;;20.30;99.90;;;;;;4775815;29;20062;-96
2022/09/08 06:16:37;;;;;;;14.40;9.93;;;20.40;99.90;;;;;;4770867;30;20087;-96
2022/09/08 06:19:05;;;;;;;12.50;8.73;;;20.40;99.90;;;;;;4761223;30;20044;-96
2022/09/08 06:21:34;;;;;;;15.18;9.32;;;20.60;99.90;;;;;;4766974;30;20147;-96
2022/09/08 06:24:05;;;;;;;15.13;9.00;;;20.70;99.90;;;;;;4765566;30;20322;-96
2022/09/08 06:26:45;;;;;;;15.77;8.73;;;20.70;99.90;;;;;;4756443;30;20098;-92
2022/09/08 06:29:31;;;;;;;14.77;8.95;;;20.90;99.90;;;;;;4753895;30;20048;-95
2022/09/08 06:32:17;;;;;;;12.82;8.60;;;20.90;99.30;;;;;;4757684;30;20493;-96
2022/09/08 06:34:49;;;;;;;15.68;8.70;;;21.00;99.10;;;;;;4757070;30;20082;-96
2022/09/08 06:37:37;;;;;;;15.48;9.13;;;21.10;99.00;;;;;;4754169;30;20648;-96
2022/09/08 06:40:19;;;;;;;13.10;9.15;;;21.20;98.30;;;;;;4758995;30;20047;-94
2022/09/08 06:43:05;;;;;;;13.00;8.13;;;21.40;98.50;;;;;;4768556;30;20040;-96
2022/09/08 06:45:43;;;;;;;16.33;9.30;;;21.50;97.50;;;;;;4752093;30;20557;-92
2022/09/08 06:48:11;;;;;;;16.75;8.15;;;21.60;98.00;;;;;;4745915;30;20445;-93
2022/09/08 06:50:51;;;;;;;14.45;7.75;;;21.50;97.80;;;;;;4750527;30;20053;-94
2022/09/08 06:53:24;;;;;;;15.45;9.73;;;21.30;97.50;;;;;;4766578;30;20070;-94
2022/09/08 06:56:18;;;;;;;16.20;8.75;;;21.20;97.70;;;;;;4741338;30;20063;-91
2022/09/08 06:59:54;;;;;;;13.48;8.43;;;21.30;97.60;;;;;;4727516;30;20047;-94
2022/09/08 07:02:39;;;;;;;12.70;7.93;;;21.60;97.20;;;;;;4735162;30;20123;-96
2022/09/08 07:05:31;;;;;;;17.08;9.77;;;21.80;97.00;;;;;;4739844;30;20086;-93
2022/09/08 07:08:13;;;;;;;14.50;8.85;;;21.80;97.30;;;;;;4737310;30;20083;-92
2022/09/08 07:10:49;;;;;;;;;;;21.90;96.20;;;;;;4735378;30;20055;-92
2022/09/08 07:13:32;;;;;;;13.75;8.18;;;22.00;96.00;;;;;;4730597;30;19949;-92
2022/09/08 07:16:20;;;;;;;18.13;9.13;;;22.20;96.30;;;;;;4752181;30;20047;-96
2022/09/08 07:19:08;;;;;;;11.20;8.05;;;22.30;95.60;;;;;;4734678;30;20056;-94
2022/09/08 07:21:51;;;;;;;;;;;22.40;95.70;;;;;;4739738;30;20051;-90
2022/09/08 07:24:23;;;;;;;11.73;7.90;;;22.40;94.50;;;;;;4737554;30;20499;-94
2022/09/08 07:26:56;;;;;;;17.65;8.95;;;22.50;94.80;;;;;;4736061;30;20048;-93
2022/09/08 07:29:32;;;;;;;11.15;7.82;;;22.70;95.00;;;;;;4739338;30;20152;-96
2022/09/08 07:32:17;;;;;;;10.63;7.45;;;22.70;94.30;;;;;;4741717;30;20060;-94
2022/09/08 07:34:51;;;;;;;10.63;7.82;;;22.80;93.70;;;;;;4732702;30;20071;-95
2022/09/08 07:37:24;;;;;;;13.45;8.40;;;22.90;94.00;;;;;;4741259;30;20070;-96
2022/09/08 07:40:16;;;;;;;12.77;7.75;;;22.90;93.40;;;;;;4739151;30;20044;-94
2022/09/08 07:43:08;;;;;;;14.35;9.10;;;23.00;93.80;;;;;;4750179;30;20052;-96
2022/09/08 07:45:56;;;;;;;12.27;8.00;;;23.00;93.20;;;;;;4735515;30;20052;-95
2022/09/08 07:48:58;;;;;;;17.63;9.25;;;23.10;93.20;;;;;;4754585;30;20051;-96
2022/09/08 07:51:33;;;;;;;11.63;7.90;;;23.20;93.30;;;;;;4751761;30;20052;-96
2022/09/08 07:54:34;;;;;;;13.75;7.63;;;23.20;92.50;;;;;;4756879;30;20054;-96
2022/09/08 07:57:06;;;;;;;11.98;7.63;;;23.30;92.00;;;;;;4734957;30;20059;-93
2022/09/08 08:00:11;;;;;;;14.45;8.55;;;23.40;91.70;;;;;;4753804;30;20050;-93
2022/09/08 08:03:12;;;;;;;13.20;8.43;;;23.40;91.40;;;;;;4769033;30;20055;-94
2022/09/08 08:05:48;;;;;;;11.20;7.73;;;23.60;92.20;;;;;;4767063;30;20070;-95
2022/09/08 08:08:20;;;;;;;12.05;7.95;;;23.80;92.10;;;;;;4772606;30;20801;-92
2022/09/08 08:11:13;;;;;;;12.38;8.52;;;23.80;90.70;;;;;;4755853;30;20058;-93
2022/09/08 08:14:15;;;;;;;12.52;7.70;;;23.90;91.50;;;;;;4750338;30;20101;-96
2022/09/08 08:16:56;;;;;;;11.77;7.35;;;24.00;90.60;;;;;;4753315;30;20105;-96
2022/09/08 08:19:36;;;;;;;13.15;7.75;;;24.00;90.90;;;;;;4765553;30;20058;-93
2022/09/08 08:22:29;;;;;;;15.73;8.93;;;24.10;90.80;;;;;;4766215;30;20043;-96
2022/09/08 08:25:15;;;;;;;11.00;8.00;;;24.20;91.60;;;;;;4769282;30;20047;-93
2022/09/08 08:27:47;;;;;;;13.00;8.75;;;24.20;91.10;;;;;;4756290;30;20108;-93
2022/09/08 08:30:21;;;;;;;10.90;7.63;;;24.40;90.80;;;;;;4751971;30;20109;-93
2022/09/08 08:33:11;;;;;;;12.10;8.23;;;24.50;90.90;;;;;;4768370;30;20055;-94
2022/09/08 08:35:46;;;;;;;11.07;7.82;;;24.60;90.60;;;;;;4754796;30;20143;-96
2022/09/08 08:38:20;;;;;;;14.77;8.85;;;24.60;90.50;;;;;;4757072;30;20086;-93
2022/09/08 08:40:59;;;;;;;10.85;7.72;;;24.70;90.40;;;;;;4758712;30;20077;-96
2022/09/08 08:43:44;;;;;;;11.40;8.52;;;24.70;88.70;;;;;;4760868;30;20479;-93
2022/09/08 08:46:42;;;;;;;14.07;8.55;;;24.70;87.70;;;;;;4758510;30;20059;-93
2022/09/08 08:49:19;;;;;;;10.13;7.68;;;24.80;88.70;;;;;;4765698;30;20090;-92
2022/09/08 08:52:16;;;;;;;11.23;7.38;;;24.90;89.40;;;;;;4783817;30;20059;-92
2022/09/08 08:55:03;;;;;;;10.07;7.35;;;25.00;89.90;;;;;;4759177;29;20062;-93
2022/09/08 08:57:44;;;;;;;10.65;7.13;;;25.00;90.00;;;;;;4768639;30;20121;-92
2022/09/08 09:00:40;;;;;;;10.25;7.20;;;25.10;89.30;;;;;;4752193;30;20043;-92
2022/09/08 09:03:36;;;;;;;8.52;6.95;;;25.20;86.80;;;;;;4760443;30;20272;-93
2022/09/08 09:06:14;;;;;;;9.50;7.22;;;25.20;88.40;;;;;;4776669;30;20056;-94
2022/09/08 09:09:11;;;;;;;9.02;6.70;;;25.30;86.70;;;;;;4755159;30;20078;-96
2022/09/08 09:11:51;;;;;;;12.13;7.43;;;25.30;84.90;;;;;;4757459;30;20523;-92
2022/09/08 09:15:02;;;;;;;10.75;7.15;;;25.40;87.00;;;;;;4785101;29;20523;-92
2022/09/08 09:18:14;;;;;;;9.77;6.78;;;25.50;87.00;;;;;;4754138;30;20047;-90
2022/09/08 09:20:53;;;;;;;12.38;7.75;;;25.50;86.90;;;;;;4761040;30;20044;-92
2022/09/08 09:23:23;;;;;;;10.25;7.60;;;25.50;84.80;;;;;;4749378;30;20079;-91
2022/09/08 09:25:59;;;;;;;10.20;7.25;;;25.40;83.40;;;;;;4765301;30;20043;-96
2022/09/08 09:28:57;;;;;;;10.02;7.63;;;25.50;82.60;;;;;;4758200;30;20043;-93
2022/09/08 09:31:43;;;;;;;11.43;7.93;;;25.60;85.20;;;;;;4747744;30;20059;-93
2022/09/08 09:34:39;;;;;;;9.70;7.25;;;25.70;84.50;;;;;;4766333;30;20047;-93
2022/09/08 09:37:25;;;;;;;10.23;7.57;;;25.80;85.30;;;;;;4751359;30;21100;-94
2022/09/08 09:40:15;;;;;;;11.55;7.55;;;25.90;84.00;;;;;;4760574;30;20059;-94
2022/09/08 09:42:51;;;;;;;11.02;7.55;;;25.90;84.20;;;;;;4766496;30;20051;-91
2022/09/08 09:45:35;;;;;;;12.70;7.40;;;25.90;82.00;;;;;;4763339;30;20046;-95
2022/09/08 09:48:18;;;;;;;11.93;7.03;;;25.90;82.30;;;;;;4761031;30;20048;-90
2022/09/08 09:50:54;;;;;;;;;;;25.90;83.50;;;;;;4771155;30;20051;-92
2022/09/08 09:53:40;;;;;;;10.90;7.07;;;26.20;85.70;;;;;;4756185;30;19926;-92
2022/09/08 09:56:26;;;;;;;10.13;6.97;;;26.10;83.80;;;;;;4767477;30;20070;-90
2022/09/08 09:59:18;;;;;;;8.60;7.43;;;26.30;85.40;;;;;;4769187;30;20093;-94
2022/09/08 10:01:52;;;;;;;;;;;26.40;82.30;;;;;;4750460;30;20043;-92
2022/09/08 10:04:20;;;;;;;8.00;6.47;;;26.40;81.40;;;;;;4761143;30;20020;-93
2022/09/08 10:07:19;;;;;;;10.85;7.15;;;26.40;80.80;;;;;;4753515;30;20082;-91
2022/09/08 10:10:08;;;;;;;9.38;6.50;;;26.40;79.80;;;;;;4747449;30;20509;-94
2022/09/08 10:13:09;;;;;;;9.05;6.50;;;26.50;79.40;;;;;;4767234;30;20102;-92
2022/09/08 10:15:42;;;;;;;11.85;6.68;;;26.40;80.40;;;;;;4746610;30;20062;-93
2022/09/08 10:18:39;;;;;;;8.10;5.63;;;26.60;81.90;;;;;;4767446;30;20108;-90
2022/09/08 10:21:43;;;;;;;8.50;5.93;;;26.60;80.80;;;;;;4745965;30;20086;-90
2022/09/08 10:24:26;;;;;;;9.20;5.55;;;26.70;81.60;;;;;;4746639;30;20498;-89
2022/09/08 10:27:35;;;;;;;8.85;5.97;;;26.80;80.60;;;;;;4764765;30;20090;-90
2022/09/08 10:30:20;;;;;;;7.00;5.22;;;26.70;79.20;;;;;;4738387;30;20143;-87
2022/09/08 10:33:04;;;;;;;10.23;4.95;;;26.70;78.60;;;;;;4749035;30;20083;-91
2022/09/08 10:35:51;;;;;;;6.22;4.25;;;26.80;78.30;;;;;;4763112;30;20047;-94
2022/09/08 10:38:54;;;;;;;8.50;5.10;;;26.90;78.50;;;;;;4755963;30;20494;-93
2022/09/08 10:41:55;;;;;;;7.35;5.13;;;27.00;79.10;;;;;;4755637;30;20047;-94
2022/09/08 10:44:44;;;;;;;6.97;3.97;;;26.90;77.80;;;;;;4766195;30;20051;-92
2022/09/08 10:47:46;;;;;;;8.48;4.68;;;27.00;77.60;;;;;;4745681;30;20052;-93
2022/09/08 10:50:30;;;;;;;7.00;4.35;;;27.10;77.80;;;;;;4767185;30;20043;-94
2022/09/08 10:53:04;;;;;;;5.90;4.20;;;27.10;78.40;;;;;;4769019;30;20116;-92
2022/09/08 10:56:08;;;;;;;9.02;4.35;;;27.10;76.80;;;;;;4736345;30;20063;-89
2022/09/08 10:58:55;;;;;;;7.20;4.43;;;27.20;80.50;;;;;;4740364;30;20056;-90
2022/09/08 11:01:40;;;;;;;5.68;3.53;;;27.20;78.30;;;;;;4752789;30;20543;-91
2022/09/08 11:04:30;;;;;;;5.78;4.10;;;27.10;77.20;;;;;;4741703;30;20058;-96
2022/09/08 11:07:30;;;;;;;9.98;4.10;;;27.00;76.10;;;;;;4746872;30;20048;-92
2022/09/08 11:10:21;;;;;;;7.15;4.65;;;27.10;77.40;;;;;;4734585;30;20062;-92
2022/09/08 11:13:08;;;;;;;5.43;3.80;;;27.10;78.40;;;;;;4730089;30;20147;-92
2022/09/08 11:16:15;;;;;;;10.98;3.65;;;27.10;78.50;;;;;;4735580;30;20044;-94
2022/09/08 11:19:20;;;;;;;7.68;2.38;;;27.20;77.30;;;;;;4736669;30;20040;-95
2022/09/08 11:22:16;;;;;;;7.30;2.58;;;27.40;77.10;;;;;;4741769;30;20058;-92
2022/09/08 11:25:05;;;;;;;4.70;2.60;;;27.50;75.80;;;;;;4749669;30;20056;-93
2022/09/08 11:27:38;;;;;;;6.55;2.90;;;27.50;74.40;;;;;;4741443;30;20054;-86
2022/09/08 11:30:22;;;;;;;6.53;2.42;;;27.50;75.60;;;;;;4751933;30;20047;-94
2022/09/08 11:33:21;;;;;;;8.13;2.42;;;27.60;74.70;;;;;;4736265;30;20081;-94
2022/09/08 11:36:19;;;;;;;5.93;2.20;;;27.60;74.90;;;;;;4752137;30;20048;-95
2022/09/08 11:39:05;;;;;;;5.50;2.50;;;27.70;75.70;;;;;;4764781;30;20101;-93
2022/09/08 11:42:12;;;;;;;4.50;2.28;;;27.70;74.60;;;;;;4754965;30;20056;-95
2022/09/08 11:45:07;;;;;;;8.98;2.67;;;27.70;74.30;;;;;;4751828;30;20109;-89
2022/09/08 11:47:57;;;;;;;8.50;2.20;;;27.60;73.70;;;;;;4733333;30;20098;-92
2022/09/08 11:50:56;;;;;;;4.45;2.75;;;27.40;73.90;;;;;;4752169;30;20063;-90
2022/09/08 11:53:55;;;;;;;5.53;1.80;;;27.20;74.80;;;;;;4742574;30;20536;-93
2022/09/08 11:56:43;;;;;;;3.67;1.48;;;27.30;73.90;;;;;;4758149;30;20052;-89
2022/09/08 11:59:44;;;;;;;6.90;2.03;;;27.40;72.70;;;;;;4768912;30;20525;-95
2022/09/08 12:02:30;;;;;;;3.90;1.25;;;27.60;74.20;;;;;;4771315;29;20439;-90
2022/09/08 12:05:20;;;;;;;4.70;1.13;;;27.70;72.30;;;;;;4774263;30;20031;-95
2022/09/08 12:08:26;;;;;;;5.75;1.15;;;27.70;71.80;;;;;;4755465;30;20053;-92
2022/09/08 12:11:05;;;;;;;7.72;1.40;;;27.70;73.20;;;;;;4755648;30;20052;-94
2022/09/08 12:13:54;;;;;;;5.25;1.25;;;27.60;70.90;;;;;;4750257;30;20055;-89
2022/09/08 12:16:33;;;;;;;5.32;1.13;;;27.70;70.80;;;;;;4768868;30;20112;-92
2022/09/08 12:19:29;;;;;;;3.10;1.17;;;27.80;70.40;;;;;;4761526;30;20070;-94
2022/09/08 12:22:14;;;;;;;2.60;1.00;;;27.80;71.40;;;;;;4752848;30;20055;-95
2022/09/08 12:24:52;;;;;;;3.47;0.98;;;27.90;71.40;;;;;;4747642;30;20746;-93
2022/09/08 12:28:08;;;;;;;4.93;1.08;;;27.90;71.10;;;;;;4765868;30;20035;-85
2022/09/08 12:31:15;;;;;;;6.35;1.40;;;27.70;70.40;;;;;;4743054;30;20546;-90
2022/09/08 12:33:51;;;;;;;3.35;1.25;;;27.70;71.20;;;;;;4728834;30;20059;-92
2022/09/08 12:36:29;;;;;;;4.10;0.82;;;27.60;72.30;;;;;;4747275;29;20047;-95
2022/09/08 12:39:09;;;;;;;4.05;1.58;;;27.70;71.40;;;;;;4756893;30;20056;-93
2022/09/08 12:41:57;;;;;;;2.45;0.73;;;27.80;71.50;;;;;;4751240;30;20471;-92
2022/09/08 12:44:33;;;;;;;3.33;1.00;;;27.80;69.90;;;;;;4714871;30;20293;-86
2022/09/08 12:47:33;;;;;;;4.18;1.23;;;27.80;70.90;;;;;;4698023;30;20057;-86
2022/09/08 12:50:12;;;;;;;3.38;1.33;;;27.60;71.30;;;;;;4720800;30;20057;-92
2022/09/08 12:52:51;;;;;;;6.15;1.40;;;27.70;70.90;;;;;;4726500;30;20048;-89
2022/09/08 12:55:24;;;;;;;3.05;1.30;;;27.60;71.50;;;;;;4700576;30;20582;-93
2022/09/08 12:57:57;;;;;;;4.32;1.05;;;27.50;71.50;;;;;;4713882;30;20054;-91
2022/09/08 13:00:34;;;;;;;4.40;1.30;;;27.60;71.10;;;;;;4686843;30;20045;-91
2022/09/08 13:03:11;;;;;;;3.20;1.35;;;27.60;71.10;;;;;;4695935;30;20090;-89
2022/09/08 13:05:45;;;;;;;2.58;1.00;;;27.70;71.30;;;;;;4721392;30;20045;-92
2022/09/08 13:08:36;;;;;;;5.35;1.05;;;27.70;71.20;;;;;;4712428;30;20492;-93
2022/09/08 13:11:34;;;;;;;4.43;1.10;;;27.80;71.10;;;;;;4675027;30;20057;-92
2022/09/08 13:14:14;;;;;;;4.57;1.30;;;27.90;71.40;;;;;;4676217;30;20080;-93
2022/09/08 13:17:07;;;;;;;2.58;1.38;;;28.00;70.60;;;;;;4689805;30;20107;-90
2022/09/08 13:20:11;;;;;;;5.13;1.42;;;28.00;70.00;;;;;;4710868;30;20060;-93
2022/09/08 13:22:54;;;;;;;5.57;1.40;;;28.00;70.80;;;;;;4725706;30;20051;-95
2022/09/08 13:25:47;;;;;;;12.93;1.63;;;28.00;71.30;;;;;;4756058;30;20071;-87
2022/09/08 13:28:39;;;;;;;5.85;1.30;;;28.00;71.00;;;;;;4747001;30;20060;-92
2022/09/08 13:31:31;;;;;;;7.35;1.85;;;27.90;70.20;;;;;;4745197;30;20051;-94
2022/09/08 13:34:13;;;;;;;3.30;1.23;;;27.90;70.90;;;;;;4738293;30;20214;-93
2022/09/08 13:37:13;;;;;;;7.78;2.05;;;27.90;71.30;;;;;;4755573;30;20063;-94
2022/09/08 13:39:57;;;;;;;8.68;2.28;;;27.80;70.60;;;;;;4708814;30;20044;-94